Normand Skude — LNVA — position and weather

sailwx.info

Track history (hours):
 
Tides and Currents Weather Stations Pressure Air Temp Water Temp Dewpoint Dewpoint Depression Visibility Wind Speed Wind Dir Waves Ship Positions

Normand Skude

Last reported at 2018-Feb-21 22:30 UTC. Time now 2018-Feb-21 22:36 UTC.
Position N 66°02' E 012°40'.

Length 87 m; draft 5.7 m.

Type: Ship. MMSI: 257982000.

Date/timePositionNaut miles runAvg speedWind from/ knotsBaromVisibWave heightAir tempDewpointWater temp
2018-Feb-21 22:30N 66°02' E 012°40'0 0.0
2018-Feb-21 22:00N 66°02' E 012°40'0 0.0
2018-Feb-21 21:30N 66°02' E 012°40'0 0.0
2018-Feb-21 21:00N 66°02' E 012°40'2 3.6
2018-Feb-21 20:30N 66°02' E 012°36'612.9
2018-Feb-21 20:00N 65°57' E 012°25'612.8
2018-Feb-21 19:29N 65°50' E 012°22'713.5
2018-Feb-21 19:00N 65°44' E 012°17'713.5
2018-Feb-21 18:30N 65°37' E 012°14'713.2
2018-Feb-21 17:59N 65°33' E 012°02'713.3
2018-Feb-21 17:30N 65°29' E 011°48'613.1
2018-Feb-21 17:00N 65°26' E 011°35'613.1
2018-Feb-21 16:30N 65°23' E 011°22'713.5
2018-Feb-21 16:00N 65°20' E 011°07'713.6
2018-Feb-21 15:31N 65°16' E 010°53'713.2
2018-Feb-21 15:00N 65°13' E 010°39'712.9
2018-Feb-21 14:30N 65°09' E 010°28'3910.3
2018-Feb-21 10:44N 64°32' E 009°60'2 6.7
2018-Feb-21 10:30N 64°30' E 009°59'4 7.3
2018-Feb-21 10:00N 64°27' E 009°55'4 7.9
2018-Feb-21 09:30N 64°23' E 009°52'5 9.3
2018-Feb-21 09:00N 64°19' E 009°48'713.8
2018-Feb-21 08:30N 64°13' E 009°41'713.8
2018-Feb-21 07:59N 64°06' E 009°34'713.9
2018-Feb-21 07:30N 64°00' E 009°28'714.3
2018-Feb-21 07:00N 63°54' E 009°21'714.2
2018-Feb-21 06:30N 63°47' E 009°16'714.7
2018-Feb-21 06:00N 63°40' E 009°15'714.0
2018-Feb-21 05:30N 63°33' E 009°16'713.6
2018-Feb-21 05:00N 63°29' E 009°02'713.9
2018-Feb-21 04:30N 63°27' E 008°47'714.0
2018-Feb-21 04:00N 63°24' E 008°33'713.9
2018-Feb-21 03:30N 63°20' E 008°20'714.5
2018-Feb-21 03:00N 63°16' E 008°08'714.3
2018-Feb-21 02:30N 63°12' E 007°54'714.0
2018-Feb-21 02:01N 63°08' E 007°41'3 6.3
2018-Feb-21 01:30N 63°06' E 007°47'0 0.2
2018-Feb-21 01:00N 63°06' E 007°47'0 0.0
2018-Feb-21 00:30N 63°06' E 007°47'0 0.0
2018-Feb-21 00:00N 63°06' E 007°47'0 0.0
2018-Feb-20 23:30N 63°06' E 007°47'0 0.0
2018-Feb-20 23:00N 63°06' E 007°47'0 0.0
2018-Feb-20 22:30N 63°06' E 007°47'0 0.0
2018-Feb-20 21:59N 63°06' E 007°47'0 0.0
2018-Feb-20 21:30N 63°06' E 007°47'0 0.0
2018-Feb-20 21:00N 63°06' E 007°47'0 0.0
2018-Feb-20 20:30N 63°06' E 007°47'0 0.0
2018-Feb-20 20:00N 63°06' E 007°47'0 0.0
2018-Feb-20 19:30N 63°06' E 007°47'0 0.0
2018-Feb-20 19:00N 63°06' E 007°47'0 0.4
2018-Feb-20 18:30N 63°06' E 007°47'0 0.0
2018-Feb-20 18:00N 63°06' E 007°47'0 0.0
2018-Feb-20 17:30N 63°06' E 007°47'0 0.0
2018-Feb-20 17:00N 63°06' E 007°47'0 0.0
2018-Feb-20 16:30N 63°06' E 007°47'0 0.0
2018-Feb-20 16:00N 63°06' E 007°47'0 0.0
2018-Feb-20 15:30N 63°06' E 007°47'0 0.0
2018-Feb-20 15:00N 63°06' E 007°47'0 0.0
2018-Feb-20 14:30N 63°06' E 007°47'0 0.5
2018-Feb-20 14:00N 63°06' E 007°47'2 5.0
2018-Feb-20 13:30N 63°06' E 007°41'2 4.9
2018-Feb-20 13:00N 63°07' E 007°36'3 6.2
2018-Feb-20 12:30N 63°06' E 007°30'3 6.4
2018-Feb-20 12:00N 63°04' E 007°24'3 6.2
2018-Feb-20 11:30N 63°03' E 007°18'3 6.0
2018-Feb-20 11:00N 63°02' E 007°12'3 5.4
2018-Feb-20 10:29N 63°01' E 007°06'2 5.0
2018-Feb-20 10:00N 63°00' E 007°01'3 5.5
2018-Feb-20 09:30N 62°60' E 006°55'3 6.0
2018-Feb-20 09:00N 62°59' E 006°49'3 5.8
2018-Feb-20 08:30N 62°58' E 006°43'3 6.3
2018-Feb-20 08:00N 62°57' E 006°36'3 6.0
2018-Feb-20 07:30N 62°56' E 006°30'3 5.9
2018-Feb-20 07:00N 62°55' E 006°23'3 6.3
2018-Feb-20 06:30N 62°54' E 006°17'3 6.1
2018-Feb-20 06:00N 62°52' E 006°11'3 6.4
2018-Feb-20 05:30N 62°50' E 006°07'3 6.5
2018-Feb-20 05:00N 62°47' E 006°02'3 6.9
2018-Feb-20 04:30N 62°45' E 005°57'3 7.2
2018-Feb-20 04:00N 62°42' E 005°52'4 7.2
2018-Feb-20 03:30N 62°39' E 005°47'3 6.8
2018-Feb-20 02:59N 62°37' E 005°43'3 6.4
2018-Feb-20 02:30N 62°34' E 005°38'3 6.5
2018-Feb-20 02:00N 62°32' E 005°34'3 6.5
2018-Feb-20 01:30N 62°29' E 005°29'3 6.7
2018-Feb-20 01:00N 62°27' E 005°24'3 6.6
2018-Feb-20 00:30N 62°24' E 005°19'3 6.5
2018-Feb-20 00:00N 62°22' E 005°15'3 6.8
2018-Feb-19 23:29N 62°19' E 005°11'3 6.9
2018-Feb-19 23:00N 62°16' E 005°07'3 6.8
2018-Feb-19 22:30N 62°13' E 005°04'3 6.5
2018-Feb-19 22:00N 62°10' E 005°03'3 6.8
2018-Feb-19 21:30N 62°07' E 005°06'3 6.4
2018-Feb-19 20:59N 62°03' E 005°08'4 7.5
2018-Feb-19 20:30N 61°60' E 005°10'3 6.9
2018-Feb-19 20:00N 61°56' E 005°08'0 0.0
2018-Feb-19 19:30N 61°56' E 005°08'4 7.1
2018-Feb-19 18:59N 61°53' E 005°10'4 8.0
2018-Feb-19 18:30N 61°50' E 005°15'510.6
2018-Feb-19 18:00N 61°48' E 005°05'510.6
2018-Feb-19 17:30N 61°44' E 004°58'611.1
2018-Feb-19 17:00N 61°38' E 004°59'5 9.9
2018-Feb-19 16:30N 61°33' E 004°60'510.9
2018-Feb-19 16:00N 61°28' E 004°57'611.2
2018-Feb-19 15:30N 61°24' E 004°49'611.3
2018-Feb-19 15:00N 61°18' E 004°48'611.3
2018-Feb-19 14:30N 61°14' E 004°56'610.9
2018-Feb-19 14:00N 61°09' E 005°01'511.0
2018-Feb-19 13:30N 61°04' E 004°59'611.1
2018-Feb-19 13:00N 61°00' E 004°50'510.6
2018-Feb-19 12:30N 60°55' E 004°46'510.6
2018-Feb-19 11:59N 60°50' E 004°45'510.1
2018-Feb-19 11:30N 60°45' E 004°47'511.2
2018-Feb-19 11:00N 60°40' E 004°51'611.4
2018-Feb-19 10:30N 60°35' E 004°55'611.3
2018-Feb-19 10:00N 60°29' E 004°59'5 9.0
2018-Feb-19 09:28N 60°25' E 005°01'0 0.0
2018-Feb-19 08:58N 60°25' E 005°01'0 0.0
2018-Feb-19 08:28N 60°25' E 005°01'0 0.0
2018-Feb-19 07:58N 60°25' E 005°01'0 0.0
2018-Feb-19 07:28N 60°25' E 005°01'0 0.0
2018-Feb-19 06:58N 60°25' E 005°01'0 0.0
2018-Feb-19 06:28N 60°25' E 005°01'0 0.0
2018-Feb-19 05:58N 60°25' E 005°01'0 0.1
2018-Feb-19 05:30N 60°25' E 005°01'3 6.4
2018-Feb-19 05:00N 60°24' E 005°07'4 8.2
2018-Feb-19 04:30N 60°20' E 005°11'4 8.1
2018-Feb-19 04:00N 60°16' E 005°10'4 7.9
2018-Feb-19 03:29N 60°12' E 005°12'4 8.8
2018-Feb-19 03:00N 60°09' E 005°17'4 8.7
2018-Feb-19 02:30N 60°05' E 005°20'4 9.0
2018-Feb-19 02:00N 60°00' E 005°21'4 8.3
2018-Feb-19 01:29N 59°57' E 005°26'4 8.8
2018-Feb-19 01:00N 59°54' E 005°32'510.2
2018-Feb-19 00:30N 59°49' E 005°34'4 8.0
2018-Feb-19 00:00N 59°45' E 005°31'4 8.7
2018-Feb-18 23:30N 59°42' E 005°25'4 8.8
2018-Feb-18 23:00N 59°38' E 005°19'4 8.9
2018-Feb-18 22:30N 59°35' E 005°15'4 8.7
2018-Feb-18 21:59N 59°30' E 005°13'510.1
2018-Feb-18 21:30N 59°25' E 005°14'510.1
2018-Feb-18 21:00N 59°21' E 005°19'510.1
2018-Feb-18 20:29N 59°16' E 005°21'5 9.8
2018-Feb-18 20:00N 59°11' E 005°21'5 9.0
2018-Feb-18 19:30N 59°08' E 005°27'5 9.0
2018-Feb-18 19:00N 59°04' E 005°32'5 9.5
2018-Feb-18 18:30N 58°59' E 005°33'4 8.4
2018-Feb-18 18:00N 58°56' E 005°35'0 0.4
2018-Feb-18 17:28N 58°55' E 005°36'0 0.0
2018-Feb-18 16:58N 58°55' E 005°36'0 0.0
2018-Feb-18 16:28N 58°55' E 005°36'0 0.0
2018-Feb-18 15:58N 58°55' E 005°36'0 0.0
2018-Feb-18 15:28N 58°55' E 005°36'0 0.0
2018-Feb-18 14:58N 58°55' E 005°36'0 0.0
2018-Feb-18 14:28N 58°55' E 005°36'0 0.0
2018-Feb-18 13:58N 58°55' E 005°36'0 0.0
2018-Feb-18 13:28N 58°55' E 005°36'0 0.4
2018-Feb-18 13:00N 58°56' E 005°36'5 9.0
2018-Feb-18 12:30N 58°60' E 005°33'3 6.3
2018-Feb-18 12:00N 59°01' E 005°38'4 7.4
2018-Feb-18 11:29N 58°59' E 005°43'0 0.0
2018-Feb-18 10:59N 58°59' E 005°43'0 0.0
2018-Feb-18 10:29N 58°59' E 005°43'0 0.0
2018-Feb-18 09:59N 58°59' E 005°43'0 0.0
2018-Feb-18 09:29N 58°59' E 005°43'0 0.0
2018-Feb-18 08:59N 58°59' E 005°43'0 0.0
2018-Feb-18 08:29N 58°59' E 005°43'0 0.0
2018-Feb-18 07:59N 58°59' E 005°43'0 0.0
2018-Feb-18 07:29N 58°59' E 005°43'0 0.0
2018-Feb-18 06:59N 58°59' E 005°43'0 0.0
2018-Feb-18 06:29N 58°59' E 005°43'0 0.0
2018-Feb-18 05:59N 58°59' E 005°43'0 0.0
2018-Feb-18 05:29N 58°59' E 005°43'0 0.0
2018-Feb-18 04:59N 58°59' E 005°43'0 0.0
2018-Feb-18 04:29N 58°59' E 005°43'0 0.0
2018-Feb-18 03:59N 58°59' E 005°43'0 0.0
2018-Feb-18 03:29N 58°59' E 005°43'0 0.0
2018-Feb-18 02:59N 58°59' E 005°43'0 0.0
2018-Feb-18 02:29N 58°59' E 005°43'0 0.0
2018-Feb-18 01:59N 58°59' E 005°43'0 0.0
2018-Feb-18 01:29N 58°59' E 005°43'0 0.0
2018-Feb-18 00:59N 58°59' E 005°43'0 0.0
2018-Feb-18 00:29N 58°59' E 005°43'0 0.0
2018-Feb-17 23:59N 58°59' E 005°43'0 0.0
2018-Feb-17 23:29N 58°59' E 005°43'0 0.0
2018-Feb-17 22:59N 58°59' E 005°43'0 0.0
2018-Feb-17 22:29N 58°59' E 005°43'0 0.0
2018-Feb-17 21:59N 58°59' E 005°43'0 0.0
2018-Feb-17 21:29N 58°59' E 005°43'0 0.0
2018-Feb-17 20:59N 58°59' E 005°43'0 0.0
2018-Feb-17 20:29N 58°59' E 005°43'0 0.0
2018-Feb-17 19:59N 58°59' E 005°43'0 0.0
2018-Feb-17 19:29N 58°59' E 005°43'0 0.0
2018-Feb-17 18:59N 58°59' E 005°43'0 0.0
2018-Feb-17 18:29N 58°59' E 005°43'0 0.0
2018-Feb-17 17:59N 58°59' E 005°43'0 0.0
2018-Feb-17 17:29N 58°59' E 005°43'0 0.0
2018-Feb-17 16:59N 58°59' E 005°43'0 0.0
2018-Feb-17 16:29N 58°59' E 005°43'0 0.0
2018-Feb-17 15:59N 58°59' E 005°43'0 0.0
2018-Feb-17 15:29N 58°59' E 005°43'0 0.0
2018-Feb-17 14:59N 58°59' E 005°43'0 0.0
2018-Feb-17 14:29N 58°59' E 005°43'0 0.0
2018-Feb-17 13:59N 58°59' E 005°43'0 0.0
2018-Feb-17 13:29N 58°59' E 005°43'0 0.0
2018-Feb-17 12:59N 58°59' E 005°43'0 0.0
2018-Feb-17 12:29N 58°59' E 005°43'0 0.0
2018-Feb-17 11:59N 58°59' E 005°43'0 0.0
2018-Feb-17 11:29N 58°59' E 005°43'0 0.0
2018-Feb-17 10:59N 58°59' E 005°43'0 0.0
2018-Feb-17 10:29N 58°59' E 005°43'0 0.0
2018-Feb-17 09:59N 58°59' E 005°43'0 0.0
2018-Feb-17 09:29N 58°59' E 005°43'0 0.0
2018-Feb-17 08:59N 58°59' E 005°43'0 0.0
2018-Feb-17 08:29N 58°59' E 005°43'0 0.0
2018-Feb-17 07:59N 58°59' E 005°43'0 0.0
2018-Feb-17 07:29N 58°59' E 005°43'0 0.0
2018-Feb-17 06:59N 58°59' E 005°43'0 0.0
2018-Feb-17 06:29N 58°59' E 005°43'0 0.0
2018-Feb-17 05:59N 58°59' E 005°43'0 0.0
2018-Feb-17 05:29N 58°59' E 005°43'0 0.0
2018-Feb-17 04:59N 58°59' E 005°43'0 0.0
2018-Feb-17 04:29N 58°59' E 005°43'0 0.0
2018-Feb-17 03:59N 58°59' E 005°43'0 0.0
2018-Feb-17 03:29N 58°59' E 005°43'0 0.0
2018-Feb-17 02:59N 58°59' E 005°43'0 0.0
2018-Feb-17 02:29N 58°59' E 005°43'0 0.0
2018-Feb-17 01:59N 58°59' E 005°43'0 0.0
2018-Feb-17 01:29N 58°59' E 005°43'0 0.0
2018-Feb-17 00:59N 58°59' E 005°43'0 0.0
2018-Feb-17 00:26N 58°59' E 005°43'0 0.0
2018-Feb-16 23:59N 58°59' E 005°43'0 0.0
2018-Feb-16 23:29N 58°59' E 005°43'0 0.0
2018-Feb-16 22:59N 58°59' E 005°43'0 0.0
2018-Feb-16 22:29N 58°59' E 005°43'0 0.0
2018-Feb-16 21:59N 58°59' E 005°43'0 0.0
2018-Feb-16 21:29N 58°59' E 005°43'0 0.0
2018-Feb-16 20:59N 58°59' E 005°43'0 0.0
2018-Feb-16 20:29N 58°59' E 005°43'0 0.0
2018-Feb-16 19:59N 58°59' E 005°43'0 0.0
2018-Feb-16 19:29N 58°59' E 005°43'0 0.0
2018-Feb-16 18:59N 58°59' E 005°43'0 0.0
2018-Feb-16 18:29N 58°59' E 005°43'0 0.0
2018-Feb-16 17:59N 58°59' E 005°43'0 0.0
2018-Feb-16 17:30N 58°59' E 005°43'2 3.7
2018-Feb-16 17:00N 59°00' E 005°41'2 3.8
2018-Feb-16 16:30N 59°01' E 005°38'3 5.7
2018-Feb-16 16:00N 59°01' E 005°33'510.0
2018-Feb-16 15:30N 58°56' E 005°34'1 2.8
2018-Feb-16 15:00N 58°55' E 005°36'0 0.0
2018-Feb-16 14:30N 58°55' E 005°36'0 0.0
2018-Feb-16 14:00N 58°55' E 005°36'0 0.0
2018-Feb-16 13:30N 58°55' E 005°36'0 0.0
2018-Feb-16 13:00N 58°55' E 005°36'0 0.0
2018-Feb-16 12:30N 58°55' E 005°36'0 0.0
2018-Feb-16 12:00N 58°55' E 005°36'0 0.0
2018-Feb-16 11:30N 58°55' E 005°36'0 0.0
2018-Feb-16 11:00N 58°55' E 005°36'0 0.0
2018-Feb-16 10:30N 58°55' E 005°36'0 0.0
2018-Feb-16 10:00N 58°55' E 005°36'0 0.0
2018-Feb-16 09:30N 58°55' E 005°36'0 0.0
2018-Feb-16 09:00N 58°55' E 005°36'0 0.0
2018-Feb-16 08:30N 58°55' E 005°36'0 0.0
2018-Feb-16 08:00N 58°55' E 005°36'0 0.0
2018-Feb-16 07:30N 58°55' E 005°36'0 0.0
2018-Feb-16 07:00N 58°55' E 005°36'0 0.0
2018-Feb-16 06:30N 58°55' E 005°36'0 0.0
2018-Feb-16 06:00N 58°55' E 005°36'0 0.0
2018-Feb-16 05:30N 58°55' E 005°36'0 0.0
2018-Feb-16 05:00N 58°55' E 005°36'0 0.0
2018-Feb-16 04:30N 58°55' E 005°36'0 0.0
2018-Feb-16 04:00N 58°55' E 005°36'0 0.0
2018-Feb-16 03:30N 58°55' E 005°36'0 0.0
2018-Feb-16 03:00N 58°55' E 005°36'0 0.0
2018-Feb-16 02:30N 58°55' E 005°36'0 0.0
2018-Feb-16 02:00N 58°55' E 005°36'0 0.0
2018-Feb-16 01:30N 58°55' E 005°36'0 0.0
2018-Feb-16 01:00N 58°55' E 005°36'0 0.0
2018-Feb-16 00:30N 58°55' E 005°36'0 0.0
2018-Feb-16 00:00N 58°55' E 005°36'0 0.0
2018-Feb-15 23:30N 58°55' E 005°36'0 0.0
2018-Feb-15 23:00N 58°55' E 005°36'0 0.0
2018-Feb-15 22:30N 58°55' E 005°36'0 0.0
2018-Feb-15 22:00N 58°55' E 005°36'0 0.0
2018-Feb-15 21:30N 58°55' E 005°36'0 0.0
2018-Feb-15 21:00N 58°55' E 005°36'0 0.0
2018-Feb-15 20:30N 58°55' E 005°36'0 0.0
2018-Feb-15 20:00N 58°55' E 005°36'0 0.0
2018-Feb-15 19:30N 58°55' E 005°36'0 0.0
2018-Feb-15 19:00N 58°55' E 005°36'0 0.0
2018-Feb-15 18:30N 58°55' E 005°36'0 0.0
2018-Feb-15 18:00N 58°55' E 005°36'0 0.0
2018-Feb-15 17:30N 58°55' E 005°36'0 0.0
2018-Feb-15 17:00N 58°55' E 005°36'0 0.0
2018-Feb-15 16:30N 58°55' E 005°36'0 0.0
2018-Feb-15 16:00N 58°55' E 005°36'0 0.0
2018-Feb-15 15:30N 58°55' E 005°36'0 0.0
2018-Feb-15 15:00N 58°55' E 005°36'0 0.0
2018-Feb-15 14:30N 58°55' E 005°36'0 0.0
2018-Feb-15 14:00N 58°55' E 005°36'0 0.0
2018-Feb-15 13:30N 58°55' E 005°36'0 0.0
2018-Feb-15 13:00N 58°55' E 005°36'0 0.0
2018-Feb-15 12:30N 58°55' E 005°36'0 0.0
2018-Feb-15 12:00N 58°55' E 005°36'0 0.0
2018-Feb-15 11:30N 58°55' E 005°36'0 0.0
2018-Feb-15 11:00N 58°55' E 005°36'0 0.0
2018-Feb-15 10:30N 58°55' E 005°36'0 0.0
2018-Feb-15 10:00N 58°55' E 005°36'0 0.0
2018-Feb-15 09:30N 58°55' E 005°36'0 0.0
2018-Feb-15 09:00N 58°55' E 005°36'0 0.0
2018-Feb-15 08:30N 58°55' E 005°36'0 0.0
2018-Feb-15 08:00N 58°55' E 005°36'0 0.0
2018-Feb-15 07:30N 58°55' E 005°36'0 0.0
2018-Feb-15 07:00N 58°55' E 005°36'0 0.0
2018-Feb-15 06:30N 58°55' E 005°36'0 0.0
2018-Feb-15 06:00N 58°55' E 005°36'0 0.0
2018-Feb-15 05:30N 58°55' E 005°36'0 0.0
2018-Feb-15 05:00N 58°55' E 005°36'0 0.0
2018-Feb-15 04:30N 58°55' E 005°36'0 0.0
2018-Feb-15 04:00N 58°55' E 005°36'0 0.0
2018-Feb-15 03:30N 58°55' E 005°36'0 0.0
2018-Feb-15 03:00N 58°55' E 005°36'0 0.0
2018-Feb-15 02:30N 58°55' E 005°36'0 0.0
2018-Feb-15 02:00N 58°55' E 005°36'0 0.0
2018-Feb-15 01:30N 58°55' E 005°36'0 0.0
2018-Feb-15 01:00N 58°55' E 005°36'0 0.0
2018-Feb-15 00:30N 58°55' E 005°36'0 0.2
2018-Feb-15 00:00N 58°55' E 005°36'0 0.0
2018-Feb-14 23:30N 58°55' E 005°36'0 0.0
2018-Feb-14 23:00N 58°55' E 005°36'0 0.0
2018-Feb-14 22:30N 58°55' E 005°36'0 0.0
2018-Feb-14 22:00N 58°55' E 005°36'0 0.0
2018-Feb-14 21:30N 58°55' E 005°36'0 0.1
2018-Feb-14 21:00N 58°56' E 005°36'2 4.3
2018-Feb-14 20:30N 58°57' E 005°33'510.2
2018-Feb-14 19:59N 59°02' E 005°33'510.4
2018-Feb-14 19:30N 58°60' E 005°42'2 3.4
2018-Feb-14 19:00N 58°58' E 005°44'0 0.0
2018-Feb-14 18:30N 58°58' E 005°44'0 0.0
2018-Feb-14 18:00N 58°58' E 005°44'0 0.0
2018-Feb-14 17:30N 58°58' E 005°44'0 0.0
2018-Feb-14 17:00N 58°58' E 005°44'0 0.0
2018-Feb-14 16:30N 58°58' E 005°44'0 0.0
2018-Feb-14 16:00N 58°58' E 005°44'0 0.0
2018-Feb-14 15:30N 58°58' E 005°44'0 0.0
2018-Feb-14 15:00N 58°58' E 005°44'0 0.0
2018-Feb-14 14:30N 58°58' E 005°44'0 0.0
2018-Feb-14 14:00N 58°58' E 005°44'0 0.0
2018-Feb-14 13:30N 58°58' E 005°44'0 0.0
2018-Feb-14 13:00N 58°58' E 005°44'0 0.0
2018-Feb-14 12:30N 58°58' E 005°44'0 0.0
2018-Feb-14 12:00N 58°58' E 005°44'0 0.0
2018-Feb-14 11:30N 58°58' E 005°44'0 0.0
2018-Feb-14 11:00N 58°58' E 005°44'0 0.0
2018-Feb-14 10:30N 58°58' E 005°44'0 0.0
2018-Feb-14 10:00N 58°58' E 005°44'0 0.0
2018-Feb-14 09:30N 58°58' E 005°44'0 0.0
2018-Feb-14 09:00N 58°58' E 005°44'0 0.0
2018-Feb-14 08:30N 58°58' E 005°44'0 0.0
2018-Feb-14 08:00N 58°58' E 005°44'0 0.0
2018-Feb-14 07:30N 58°58' E 005°44'0 0.0
2018-Feb-14 07:00N 58°58' E 005°44'0 0.0
2018-Feb-14 06:30N 58°58' E 005°44'0 0.0
2018-Feb-14 06:00N 58°58' E 005°44'0 0.0
2018-Feb-14 05:30N 58°58' E 005°44'0 0.0
2018-Feb-14 05:00N 58°58' E 005°44'0 0.0
2018-Feb-14 04:30N 58°58' E 005°44'0 0.0
2018-Feb-14 04:00N 58°58' E 005°44'0 0.0
2018-Feb-14 03:30N 58°58' E 005°44'0 0.0
2018-Feb-14 03:00N 58°58' E 005°44'0 0.0
2018-Feb-14 02:30N 58°58' E 005°44'0 0.0
2018-Feb-14 02:00N 58°58' E 005°44'0 0.0
2018-Feb-14 01:30N 58°58' E 005°44'0 0.0
2018-Feb-14 01:00N 58°58' E 005°44'0 0.0
2018-Feb-14 00:30N 58°58' E 005°44'0 0.0
2018-Feb-14 00:00N 58°58' E 005°44'1 2.1
2018-Feb-13 23:30N 58°59' E 005°43'5 9.6
2018-Feb-13 23:00N 59°03' E 005°36'5 9.0
2018-Feb-13 22:30N 59°06' E 005°30'510.7
2018-Feb-13 22:00N 59°04' E 005°20'510.8
2018-Feb-13 21:30N 59°02' E 005°11'510.9
2018-Feb-13 21:01N 59°02' E 005°00'610.9
2018-Feb-13 20:29N 59°03' E 004°49'5 0.2
2018-Feb-12 18:15N 58°57' E 004°51'310.9
2018-Feb-12 17:57N 58°56' E 004°57'510.8
2018-Feb-12 17:30N 58°55' E 005°05'611.0
2018-Feb-12 17:00N 58°53' E 005°16'511.0
2018-Feb-12 16:30N 58°52' E 005°26'5 9.9
2018-Feb-12 16:00N 58°55' E 005°33'2 3.5
2018-Feb-12 15:30N 58°55' E 005°36'0 0.0
2018-Feb-12 15:00N 58°55' E 005°36'0 0.0
2018-Feb-12 14:30N 58°55' E 005°36'0 0.0
2018-Feb-12 14:00N 58°55' E 005°36'0 0.1
2018-Feb-12 13:30N 58°55' E 005°36'0 0.1
2018-Feb-12 13:00N 58°56' E 005°36'0 0.0
2018-Feb-12 12:30N 58°56' E 005°36'0 0.1
2018-Feb-12 12:00N 58°56' E 005°36'2 3.2
2018-Feb-12 11:30N 58°56' E 005°33'4 8.3
2018-Feb-12 11:00N 59°00' E 005°33'2 5.0
2018-Feb-12 10:30N 59°02' E 005°36'4 7.6
2018-Feb-12 10:00N 58°60' E 005°42'1 2.8
2018-Feb-12 09:30N 58°59' E 005°43'0 0.0
2018-Feb-12 09:00N 58°59' E 005°43'0 0.0
2018-Feb-12 08:30N 58°59' E 005°43'0 0.0
2018-Feb-12 08:00N 58°59' E 005°43'0 0.0
2018-Feb-12 07:30N 58°59' E 005°43'0 0.0
2018-Feb-12 07:00N 58°59' E 005°43'0 0.0
2018-Feb-12 06:30N 58°59' E 005°43'0 0.0
2018-Feb-12 06:00N 58°59' E 005°43'0 0.0
2018-Feb-12 05:30N 58°59' E 005°43'0 0.0
2018-Feb-12 05:00N 58°59' E 005°43'0 0.0
2018-Feb-12 04:30N 58°59' E 005°43'0 0.0
2018-Feb-12 04:00N 58°59' E 005°43'0 0.0
2018-Feb-12 03:30N 58°59' E 005°43'0 0.0
2018-Feb-12 03:00N 58°59' E 005°43'0 0.0
2018-Feb-12 02:30N 58°59' E 005°43'0 0.0
2018-Feb-12 02:00N 58°59' E 005°43'0 0.0
2018-Feb-12 01:27N 58°59' E 005°43'0 0.0
2018-Feb-12 01:00N 58°59' E 005°43'0 0.0
2018-Feb-12 00:30N 58°59' E 005°43'0 0.0
2018-Feb-12 00:00N 58°59' E 005°43'0 0.0
2018-Feb-11 23:30N 58°59' E 005°43'0 0.0
2018-Feb-11 23:00N 58°59' E 005°43'  
Track history (hours):
 
Tides and Currents Weather Stations Pressure Air Temp Water Temp Dewpoint Dewpoint Depression Visibility Wind Speed Wind Dir Waves Ship Positions

Normand Skude

Last reported at 2018-Feb-21 22:30 UTC. Time now 2018-Feb-21 22:36 UTC.
Position N 66°02' E 012°40'.

Length 87 m; draft 5.7 m.

Type: Ship. MMSI: 257982000.

Date/timePositionNaut miles runAvg speedWind from/ knotsBaromVisibWave heightAir tempDewpointWater temp
2018-Feb-21 22:30N 66°02' E 012°40'0 0.0
2018-Feb-21 22:00N 66°02' E 012°40'0 0.0
2018-Feb-21 21:30N 66°02' E 012°40'0 0.0
2018-Feb-21 21:00N 66°02' E 012°40'2 3.6
2018-Feb-21 20:30N 66°02' E 012°36'612.9
2018-Feb-21 20:00N 65°57' E 012°25'612.8
2018-Feb-21 19:29N 65°50' E 012°22'713.5
2018-Feb-21 19:00N 65°44' E 012°17'713.5
2018-Feb-21 18:30N 65°37' E 012°14'713.2
2018-Feb-21 17:59N 65°33' E 012°02'713.3
2018-Feb-21 17:30N 65°29' E 011°48'613.1
2018-Feb-21 17:00N 65°26' E 011°35'613.1
2018-Feb-21 16:30N 65°23' E 011°22'713.5
2018-Feb-21 16:00N 65°20' E 011°07'713.6
2018-Feb-21 15:31N 65°16' E 010°53'713.2
2018-Feb-21 15:00N 65°13' E 010°39'712.9
2018-Feb-21 14:30N 65°09' E 010°28'3910.3
2018-Feb-21 10:44N 64°32' E 009°60'2 6.7
2018-Feb-21 10:30N 64°30' E 009°59'4 7.3
2018-Feb-21 10:00N 64°27' E 009°55'4 7.9
2018-Feb-21 09:30N 64°23' E 009°52'5 9.3
2018-Feb-21 09:00N 64°19' E 009°48'713.8
2018-Feb-21 08:30N 64°13' E 009°41'713.8
2018-Feb-21 07:59N 64°06' E 009°34'713.9
2018-Feb-21 07:30N 64°00' E 009°28'714.3
2018-Feb-21 07:00N 63°54' E 009°21'714.2
2018-Feb-21 06:30N 63°47' E 009°16'714.7
2018-Feb-21 06:00N 63°40' E 009°15'714.0
2018-Feb-21 05:30N 63°33' E 009°16'713.6
2018-Feb-21 05:00N 63°29' E 009°02'713.9
2018-Feb-21 04:30N 63°27' E 008°47'714.0
2018-Feb-21 04:00N 63°24' E 008°33'713.9
2018-Feb-21 03:30N 63°20' E 008°20'714.5
2018-Feb-21 03:00N 63°16' E 008°08'714.3
2018-Feb-21 02:30N 63°12' E 007°54'714.0
2018-Feb-21 02:01N 63°08' E 007°41'3 6.3
2018-Feb-21 01:30N 63°06' E 007°47'0 0.2
2018-Feb-21 01:00N 63°06' E 007°47'0 0.0
2018-Feb-21 00:30N 63°06' E 007°47'0 0.0
2018-Feb-21 00:00N 63°06' E 007°47'0 0.0
2018-Feb-20 23:30N 63°06' E 007°47'0 0.0
2018-Feb-20 23:00N 63°06' E 007°47'0 0.0
2018-Feb-20 22:30N 63°06' E 007°47'0 0.0
2018-Feb-20 21:59N 63°06' E 007°47'0 0.0
2018-Feb-20 21:30N 63°06' E 007°47'0 0.0
2018-Feb-20 21:00N 63°06' E 007°47'0 0.0
2018-Feb-20 20:30N 63°06' E 007°47'0 0.0
2018-Feb-20 20:00N 63°06' E 007°47'0 0.0
2018-Feb-20 19:30N 63°06' E 007°47'0 0.0
2018-Feb-20 19:00N 63°06' E 007°47'0 0.4
2018-Feb-20 18:30N 63°06' E 007°47'0 0.0
2018-Feb-20 18:00N 63°06' E 007°47'0 0.0
2018-Feb-20 17:30N 63°06' E 007°47'0 0.0
2018-Feb-20 17:00N 63°06' E 007°47'0 0.0
2018-Feb-20 16:30N 63°06' E 007°47'0 0.0
2018-Feb-20 16:00N 63°06' E 007°47'0 0.0
2018-Feb-20 15:30N 63°06' E 007°47'0 0.0
2018-Feb-20 15:00N 63°06' E 007°47'0 0.0
2018-Feb-20 14:30N 63°06' E 007°47'0 0.5
2018-Feb-20 14:00N 63°06' E 007°47'2 5.0
2018-Feb-20 13:30N 63°06' E 007°41'2 4.9
2018-Feb-20 13:00N 63°07' E 007°36'3 6.2
2018-Feb-20 12:30N 63°06' E 007°30'3 6.4
2018-Feb-20 12:00N 63°04' E 007°24'3 6.2
2018-Feb-20 11:30N 63°03' E 007°18'3 6.0
2018-Feb-20 11:00N 63°02' E 007°12'3 5.4
2018-Feb-20 10:29N 63°01' E 007°06'2 5.0
2018-Feb-20 10:00N 63°00' E 007°01'3 5.5
2018-Feb-20 09:30N 62°60' E 006°55'3 6.0
2018-Feb-20 09:00N 62°59' E 006°49'3 5.8
2018-Feb-20 08:30N 62°58' E 006°43'3 6.3
2018-Feb-20 08:00N 62°57' E 006°36'3 6.0
2018-Feb-20 07:30N 62°56' E 006°30'3 5.9
2018-Feb-20 07:00N 62°55' E 006°23'3 6.3
2018-Feb-20 06:30N 62°54' E 006°17'3 6.1
2018-Feb-20 06:00N 62°52' E 006°11'3 6.4
2018-Feb-20 05:30N 62°50' E 006°07'3 6.5
2018-Feb-20 05:00N 62°47' E 006°02'3 6.9
2018-Feb-20 04:30N 62°45' E 005°57'3 7.2
2018-Feb-20 04:00N 62°42' E 005°52'4 7.2
2018-Feb-20 03:30N 62°39' E 005°47'3 6.8
2018-Feb-20 02:59N 62°37' E 005°43'3 6.4
2018-Feb-20 02:30N 62°34' E 005°38'3 6.5
2018-Feb-20 02:00N 62°32' E 005°34'3 6.5
2018-Feb-20 01:30N 62°29' E 005°29'3 6.7
2018-Feb-20 01:00N 62°27' E 005°24'3 6.6
2018-Feb-20 00:30N 62°24' E 005°19'3 6.5
2018-Feb-20 00:00N 62°22' E 005°15'3 6.8
2018-Feb-19 23:29N 62°19' E 005°11'3 6.9
2018-Feb-19 23:00N 62°16' E 005°07'3 6.8
2018-Feb-19 22:30N 62°13' E 005°04'3 6.5
2018-Feb-19 22:00N 62°10' E 005°03'3 6.8
2018-Feb-19 21:30N 62°07' E 005°06'3 6.4
2018-Feb-19 20:59N 62°03' E 005°08'4 7.5
2018-Feb-19 20:30N 61°60' E 005°10'3 6.9
2018-Feb-19 20:00N 61°56' E 005°08'0 0.0
2018-Feb-19 19:30N 61°56' E 005°08'4 7.1
2018-Feb-19 18:59N 61°53' E 005°10'4 8.0
2018-Feb-19 18:30N 61°50' E 005°15'510.6
2018-Feb-19 18:00N 61°48' E 005°05'510.6
2018-Feb-19 17:30N 61°44' E 004°58'611.1
2018-Feb-19 17:00N 61°38' E 004°59'5 9.9
2018-Feb-19 16:30N 61°33' E 004°60'510.9
2018-Feb-19 16:00N 61°28' E 004°57'611.2
2018-Feb-19 15:30N 61°24' E 004°49'611.3
2018-Feb-19 15:00N 61°18' E 004°48'611.3
2018-Feb-19 14:30N 61°14' E 004°56'610.9
2018-Feb-19 14:00N 61°09' E 005°01'511.0
2018-Feb-19 13:30N 61°04' E 004°59'611.1
2018-Feb-19 13:00N 61°00' E 004°50'510.6
2018-Feb-19 12:30N 60°55' E 004°46'510.6
2018-Feb-19 11:59N 60°50' E 004°45'510.1
2018-Feb-19 11:30N 60°45' E 004°47'511.2
2018-Feb-19 11:00N 60°40' E 004°51'611.4
2018-Feb-19 10:30N 60°35' E 004°55'611.3
2018-Feb-19 10:00N 60°29' E 004°59'5 9.0
2018-Feb-19 09:28N 60°25' E 005°01'0 0.0
2018-Feb-19 08:58N 60°25' E 005°01'0 0.0
2018-Feb-19 08:28N 60°25' E 005°01'0 0.0
2018-Feb-19 07:58N 60°25' E 005°01'0 0.0
2018-Feb-19 07:28N 60°25' E 005°01'0 0.0
2018-Feb-19 06:58N 60°25' E 005°01'0 0.0
2018-Feb-19 06:28N 60°25' E 005°01'0 0.0
2018-Feb-19 05:58N 60°25' E 005°01'0 0.1
2018-Feb-19 05:30N 60°25' E 005°01'3 6.4
2018-Feb-19 05:00N 60°24' E 005°07'4 8.2
2018-Feb-19 04:30N 60°20' E 005°11'4 8.1
2018-Feb-19 04:00N 60°16' E 005°10'4 7.9
2018-Feb-19 03:29N 60°12' E 005°12'4 8.8
2018-Feb-19 03:00N 60°09' E 005°17'4 8.7
2018-Feb-19 02:30N 60°05' E 005°20'4 9.0
2018-Feb-19 02:00N 60°00' E 005°21'4 8.3
2018-Feb-19 01:29N 59°57' E 005°26'4 8.8
2018-Feb-19 01:00N 59°54' E 005°32'510.2
2018-Feb-19 00:30N 59°49' E 005°34'4 8.0
2018-Feb-19 00:00N 59°45' E 005°31'4 8.7
2018-Feb-18 23:30N 59°42' E 005°25'4 8.8
2018-Feb-18 23:00N 59°38' E 005°19'4 8.9
2018-Feb-18 22:30N 59°35' E 005°15'4 8.7
2018-Feb-18 21:59N 59°30' E 005°13'510.1
2018-Feb-18 21:30N 59°25' E 005°14'510.1
2018-Feb-18 21:00N 59°21' E 005°19'510.1
2018-Feb-18 20:29N 59°16' E 005°21'5 9.8
2018-Feb-18 20:00N 59°11' E 005°21'5 9.0
2018-Feb-18 19:30N 59°08' E 005°27'5 9.0
2018-Feb-18 19:00N 59°04' E 005°32'5 9.5
2018-Feb-18 18:30N 58°59' E 005°33'4 8.4
2018-Feb-18 18:00N 58°56' E 005°35'0 0.4
2018-Feb-18 17:28N 58°55' E 005°36'0 0.0
2018-Feb-18 16:58N 58°55' E 005°36'0 0.0
2018-Feb-18 16:28N 58°55' E 005°36'0 0.0
2018-Feb-18 15:58N 58°55' E 005°36'0 0.0
2018-Feb-18 15:28N 58°55' E 005°36'0 0.0
2018-Feb-18 14:58N 58°55' E 005°36'0 0.0
2018-Feb-18 14:28N 58°55' E 005°36'0 0.0
2018-Feb-18 13:58N 58°55' E 005°36'0 0.0
2018-Feb-18 13:28N 58°55' E 005°36'0 0.4
2018-Feb-18 13:00N 58°56' E 005°36'5 9.0
2018-Feb-18 12:30N 58°60' E 005°33'3 6.3
2018-Feb-18 12:00N 59°01' E 005°38'4 7.4
2018-Feb-18 11:29N 58°59' E 005°43'0 0.0
2018-Feb-18 10:59N 58°59' E 005°43'0 0.0
2018-Feb-18 10:29N 58°59' E 005°43'0 0.0
2018-Feb-18 09:59N 58°59' E 005°43'0 0.0
2018-Feb-18 09:29N 58°59' E 005°43'0 0.0
2018-Feb-18 08:59N 58°59' E 005°43'0 0.0
2018-Feb-18 08:29N 58°59' E 005°43'0 0.0
2018-Feb-18 07:59N 58°59' E 005°43'0 0.0
2018-Feb-18 07:29N 58°59' E 005°43'0 0.0
2018-Feb-18 06:59N 58°59' E 005°43'0 0.0
2018-Feb-18 06:29N 58°59' E 005°43'0 0.0
2018-Feb-18 05:59N 58°59' E 005°43'0 0.0
2018-Feb-18 05:29N 58°59' E 005°43'0 0.0
2018-Feb-18 04:59N 58°59' E 005°43'0 0.0
2018-Feb-18 04:29N 58°59' E 005°43'0 0.0
2018-Feb-18 03:59N 58°59' E 005°43'0 0.0
2018-Feb-18 03:29N 58°59' E 005°43'0 0.0
2018-Feb-18 02:59N 58°59' E 005°43'0 0.0
2018-Feb-18 02:29N 58°59' E 005°43'0 0.0
2018-Feb-18 01:59N 58°59' E 005°43'0 0.0
2018-Feb-18 01:29N 58°59' E 005°43'0 0.0
2018-Feb-18 00:59N 58°59' E 005°43'0 0.0
2018-Feb-18 00:29N 58°59' E 005°43'0 0.0
2018-Feb-17 23:59N 58°59' E 005°43'0 0.0
2018-Feb-17 23:29N 58°59' E 005°43'0 0.0
2018-Feb-17 22:59N 58°59' E 005°43'0 0.0
2018-Feb-17 22:29N 58°59' E 005°43'0 0.0
2018-Feb-17 21:59N 58°59' E 005°43'0 0.0
2018-Feb-17 21:29N 58°59' E 005°43'0 0.0
2018-Feb-17 20:59N 58°59' E 005°43'0 0.0
2018-Feb-17 20:29N 58°59' E 005°43'0 0.0
2018-Feb-17 19:59N 58°59' E 005°43'0 0.0
2018-Feb-17 19:29N 58°59' E 005°43'0 0.0
2018-Feb-17 18:59N 58°59' E 005°43'0 0.0
2018-Feb-17 18:29N 58°59' E 005°43'0 0.0
2018-Feb-17 17:59N 58°59' E 005°43'0 0.0
2018-Feb-17 17:29N 58°59' E 005°43'0 0.0
2018-Feb-17 16:59N 58°59' E 005°43'0 0.0
2018-Feb-17 16:29N 58°59' E 005°43'0 0.0
2018-Feb-17 15:59N 58°59' E 005°43'0 0.0
2018-Feb-17 15:29N 58°59' E 005°43'0 0.0
2018-Feb-17 14:59N 58°59' E 005°43'0 0.0
2018-Feb-17 14:29N 58°59' E 005°43'0 0.0
2018-Feb-17 13:59N 58°59' E 005°43'0 0.0
2018-Feb-17 13:29N 58°59' E 005°43'0 0.0
2018-Feb-17 12:59N 58°59' E 005°43'0 0.0
2018-Feb-17 12:29N 58°59' E 005°43'0 0.0
2018-Feb-17 11:59N 58°59' E 005°43'0 0.0
2018-Feb-17 11:29N 58°59' E 005°43'0 0.0
2018-Feb-17 10:59N 58°59' E 005°43'0 0.0
2018-Feb-17 10:29N 58°59' E 005°43'0 0.0
2018-Feb-17 09:59N 58°59' E 005°43'0 0.0
2018-Feb-17 09:29N 58°59' E 005°43'0 0.0
2018-Feb-17 08:59N 58°59' E 005°43'0 0.0
2018-Feb-17 08:29N 58°59' E 005°43'0 0.0
2018-Feb-17 07:59N 58°59' E 005°43'0 0.0
2018-Feb-17 07:29N 58°59' E 005°43'0 0.0
2018-Feb-17 06:59N 58°59' E 005°43'0 0.0
2018-Feb-17 06:29N 58°59' E 005°43'0 0.0
2018-Feb-17 05:59N 58°59' E 005°43'0 0.0
2018-Feb-17 05:29N 58°59' E 005°43'0 0.0
2018-Feb-17 04:59N 58°59' E 005°43'0 0.0
2018-Feb-17 04:29N 58°59' E 005°43'0 0.0
2018-Feb-17 03:59N 58°59' E 005°43'0 0.0
2018-Feb-17 03:29N 58°59' E 005°43'0 0.0
2018-Feb-17 02:59N 58°59' E 005°43'0 0.0
2018-Feb-17 02:29N 58°59' E 005°43'0 0.0
2018-Feb-17 01:59N 58°59' E 005°43'0 0.0
2018-Feb-17 01:29N 58°59' E 005°43'0 0.0
2018-Feb-17 00:59N 58°59' E 005°43'0 0.0
2018-Feb-17 00:26N 58°59' E 005°43'0 0.0
2018-Feb-16 23:59N 58°59' E 005°43'0 0.0
2018-Feb-16 23:29N 58°59' E 005°43'0 0.0
2018-Feb-16 22:59N 58°59' E 005°43'0 0.0
2018-Feb-16 22:29N 58°59' E 005°43'0 0.0
2018-Feb-16 21:59N 58°59' E 005°43'0 0.0
2018-Feb-16 21:29N 58°59' E 005°43'0 0.0
2018-Feb-16 20:59N 58°59' E 005°43'0 0.0
2018-Feb-16 20:29N 58°59' E 005°43'0 0.0
2018-Feb-16 19:59N 58°59' E 005°43'0 0.0
2018-Feb-16 19:29N 58°59' E 005°43'0 0.0
2018-Feb-16 18:59N 58°59' E 005°43'0 0.0
2018-Feb-16 18:29N 58°59' E 005°43'0 0.0
2018-Feb-16 17:59N 58°59' E 005°43'0 0.0
2018-Feb-16 17:30N 58°59' E 005°43'2 3.7
2018-Feb-16 17:00N 59°00' E 005°41'2 3.8
2018-Feb-16 16:30N 59°01' E 005°38'3 5.7
2018-Feb-16 16:00N 59°01' E 005°33'510.0
2018-Feb-16 15:30N 58°56' E 005°34'1 2.8
2018-Feb-16 15:00N 58°55' E 005°36'0 0.0
2018-Feb-16 14:30N 58°55' E 005°36'0 0.0
2018-Feb-16 14:00N 58°55' E 005°36'0 0.0
2018-Feb-16 13:30N 58°55' E 005°36'0 0.0
2018-Feb-16 13:00N 58°55' E 005°36'0 0.0
2018-Feb-16 12:30N 58°55' E 005°36'0 0.0
2018-Feb-16 12:00N 58°55' E 005°36'0 0.0
2018-Feb-16 11:30N 58°55' E 005°36'0 0.0
2018-Feb-16 11:00N 58°55' E 005°36'0 0.0
2018-Feb-16 10:30N 58°55' E 005°36'0 0.0
2018-Feb-16 10:00N 58°55' E 005°36'0 0.0
2018-Feb-16 09:30N 58°55' E 005°36'0 0.0
2018-Feb-16 09:00N 58°55' E 005°36'0 0.0
2018-Feb-16 08:30N 58°55' E 005°36'0 0.0
2018-Feb-16 08:00N 58°55' E 005°36'0 0.0
2018-Feb-16 07:30N 58°55' E 005°36'0 0.0
2018-Feb-16 07:00N 58°55' E 005°36'0 0.0
2018-Feb-16 06:30N 58°55' E 005°36'0 0.0
2018-Feb-16 06:00N 58°55' E 005°36'0 0.0
2018-Feb-16 05:30N 58°55' E 005°36'0 0.0
2018-Feb-16 05:00N 58°55' E 005°36'0 0.0
2018-Feb-16 04:30N 58°55' E 005°36'0 0.0
2018-Feb-16 04:00N 58°55' E 005°36'0 0.0
2018-Feb-16 03:30N 58°55' E 005°36'0 0.0
2018-Feb-16 03:00N 58°55' E 005°36'0 0.0
2018-Feb-16 02:30N 58°55' E 005°36'0 0.0
2018-Feb-16 02:00N 58°55' E 005°36'0 0.0
2018-Feb-16 01:30N 58°55' E 005°36'0 0.0
2018-Feb-16 01:00N 58°55' E 005°36'0 0.0
2018-Feb-16 00:30N 58°55' E 005°36'0 0.0
2018-Feb-16 00:00N 58°55' E 005°36'0 0.0
2018-Feb-15 23:30N 58°55' E 005°36'0 0.0
2018-Feb-15 23:00N 58°55' E 005°36'0 0.0
2018-Feb-15 22:30N 58°55' E 005°36'0 0.0
2018-Feb-15 22:00N 58°55' E 005°36'0 0.0
2018-Feb-15 21:30N 58°55' E 005°36'0 0.0
2018-Feb-15 21:00N 58°55' E 005°36'0 0.0
2018-Feb-15 20:30N 58°55' E 005°36'0 0.0
2018-Feb-15 20:00N 58°55' E 005°36'0 0.0
2018-Feb-15 19:30N 58°55' E 005°36'0 0.0
2018-Feb-15 19:00N 58°55' E 005°36'0 0.0
2018-Feb-15 18:30N 58°55' E 005°36'0 0.0
2018-Feb-15 18:00N 58°55' E 005°36'0 0.0
2018-Feb-15 17:30N 58°55' E 005°36'0 0.0
2018-Feb-15 17:00N 58°55' E 005°36'0 0.0
2018-Feb-15 16:30N 58°55' E 005°36'0 0.0
2018-Feb-15 16:00N 58°55' E 005°36'0 0.0
2018-Feb-15 15:30N 58°55' E 005°36'0 0.0
2018-Feb-15 15:00N 58°55' E 005°36'0 0.0
2018-Feb-15 14:30N 58°55' E 005°36'0 0.0
2018-Feb-15 14:00N 58°55' E 005°36'0 0.0
2018-Feb-15 13:30N 58°55' E 005°36'0 0.0
2018-Feb-15 13:00N 58°55' E 005°36'0 0.0
2018-Feb-15 12:30N 58°55' E 005°36'0 0.0
2018-Feb-15 12:00N 58°55' E 005°36'0 0.0
2018-Feb-15 11:30N 58°55' E 005°36'0 0.0
2018-Feb-15 11:00N 58°55' E 005°36'0 0.0
2018-Feb-15 10:30N 58°55' E 005°36'0 0.0
2018-Feb-15 10:00N 58°55' E 005°36'0 0.0
2018-Feb-15 09:30N 58°55' E 005°36'0 0.0
2018-Feb-15 09:00N 58°55' E 005°36'0 0.0
2018-Feb-15 08:30N 58°55' E 005°36'0 0.0
2018-Feb-15 08:00N 58°55' E 005°36'0 0.0
2018-Feb-15 07:30N 58°55' E 005°36'0 0.0
2018-Feb-15 07:00N 58°55' E 005°36'0 0.0
2018-Feb-15 06:30N 58°55' E 005°36'0 0.0
2018-Feb-15 06:00N 58°55' E 005°36'0 0.0
2018-Feb-15 05:30N 58°55' E 005°36'0 0.0
2018-Feb-15 05:00N 58°55' E 005°36'0 0.0
2018-Feb-15 04:30N 58°55' E 005°36'0 0.0
2018-Feb-15 04:00N 58°55' E 005°36'0 0.0
2018-Feb-15 03:30N 58°55' E 005°36'0 0.0
2018-Feb-15 03:00N 58°55' E 005°36'0 0.0
2018-Feb-15 02:30N 58°55' E 005°36'0 0.0
2018-Feb-15 02:00N 58°55' E 005°36'0 0.0
2018-Feb-15 01:30N 58°55' E 005°36'0 0.0
2018-Feb-15 01:00N 58°55' E 005°36'0 0.0
2018-Feb-15 00:30N 58°55' E 005°36'0 0.2
2018-Feb-15 00:00N 58°55' E 005°36'0 0.0
2018-Feb-14 23:30N 58°55' E 005°36'0 0.0
2018-Feb-14 23:00N 58°55' E 005°36'0 0.0
2018-Feb-14 22:30N 58°55' E 005°36'0 0.0
2018-Feb-14 22:00N 58°55' E 005°36'0 0.0
2018-Feb-14 21:30N 58°55' E 005°36'0 0.1
2018-Feb-14 21:00N 58°56' E 005°36'2 4.3
2018-Feb-14 20:30N 58°57' E 005°33'510.2
2018-Feb-14 19:59N 59°02' E 005°33'510.4
2018-Feb-14 19:30N 58°60' E 005°42'2 3.4
2018-Feb-14 19:00N 58°58' E 005°44'0 0.0
2018-Feb-14 18:30N 58°58' E 005°44'0 0.0
2018-Feb-14 18:00N 58°58' E 005°44'0 0.0
2018-Feb-14 17:30N 58°58' E 005°44'0 0.0
2018-Feb-14 17:00N 58°58' E 005°44'0 0.0
2018-Feb-14 16:30N 58°58' E 005°44'0 0.0
2018-Feb-14 16:00N 58°58' E 005°44'0 0.0
2018-Feb-14 15:30N 58°58' E 005°44'0 0.0
2018-Feb-14 15:00N 58°58' E 005°44'0 0.0
2018-Feb-14 14:30N 58°58' E 005°44'0 0.0
2018-Feb-14 14:00N 58°58' E 005°44'0 0.0
2018-Feb-14 13:30N 58°58' E 005°44'0 0.0
2018-Feb-14 13:00N 58°58' E 005°44'0 0.0
2018-Feb-14 12:30N 58°58' E 005°44'0 0.0
2018-Feb-14 12:00N 58°58' E 005°44'0 0.0
2018-Feb-14 11:30N 58°58' E 005°44'0 0.0
2018-Feb-14 11:00N 58°58' E 005°44'0 0.0
2018-Feb-14 10:30N 58°58' E 005°44'0 0.0
2018-Feb-14 10:00N 58°58' E 005°44'0 0.0
2018-Feb-14 09:30N 58°58' E 005°44'0 0.0
2018-Feb-14 09:00N 58°58' E 005°44'0 0.0
2018-Feb-14 08:30N 58°58' E 005°44'0 0.0
2018-Feb-14 08:00N 58°58' E 005°44'0 0.0
2018-Feb-14 07:30N 58°58' E 005°44'0 0.0
2018-Feb-14 07:00N 58°58' E 005°44'0 0.0
2018-Feb-14 06:30N 58°58' E 005°44'0 0.0
2018-Feb-14 06:00N 58°58' E 005°44'0 0.0
2018-Feb-14 05:30N 58°58' E 005°44'0 0.0
2018-Feb-14 05:00N 58°58' E 005°44'0 0.0
2018-Feb-14 04:30N 58°58' E 005°44'0 0.0
2018-Feb-14 04:00N 58°58' E 005°44'0 0.0
2018-Feb-14 03:30N 58°58' E 005°44'0 0.0
2018-Feb-14 03:00N 58°58' E 005°44'0 0.0
2018-Feb-14 02:30N 58°58' E 005°44'0 0.0
2018-Feb-14 02:00N 58°58' E 005°44'0 0.0
2018-Feb-14 01:30N 58°58' E 005°44'0 0.0
2018-Feb-14 01:00N 58°58' E 005°44'0 0.0
2018-Feb-14 00:30N 58°58' E 005°44'0 0.0
2018-Feb-14 00:00N 58°58' E 005°44'1 2.1
2018-Feb-13 23:30N 58°59' E 005°43'5 9.6
2018-Feb-13 23:00N 59°03' E 005°36'5 9.0
2018-Feb-13 22:30N 59°06' E 005°30'510.7
2018-Feb-13 22:00N 59°04' E 005°20'510.8
2018-Feb-13 21:30N 59°02' E 005°11'510.9
2018-Feb-13 21:01N 59°02' E 005°00'610.9
2018-Feb-13 20:29N 59°03' E 004°49'5 0.2
2018-Feb-12 18:15N 58°57' E 004°51'310.9
2018-Feb-12 17:57N 58°56' E 004°57'510.8
2018-Feb-12 17:30N 58°55' E 005°05'611.0
2018-Feb-12 17:00N 58°53' E 005°16'511.0
2018-Feb-12 16:30N 58°52' E 005°26'5 9.9
2018-Feb-12 16:00N 58°55' E 005°33'2 3.5
2018-Feb-12 15:30N 58°55' E 005°36'0 0.0
2018-Feb-12 15:00N 58°55' E 005°36'0 0.0
2018-Feb-12 14:30N 58°55' E 005°36'0 0.0
2018-Feb-12 14:00N 58°55' E 005°36'0 0.1
2018-Feb-12 13:30N 58°55' E 005°36'0 0.1
2018-Feb-12 13:00N 58°56' E 005°36'0 0.0
2018-Feb-12 12:30N 58°56' E 005°36'0 0.1
2018-Feb-12 12:00N 58°56' E 005°36'2 3.2
2018-Feb-12 11:30N 58°56' E 005°33'4 8.3
2018-Feb-12 11:00N 59°00' E 005°33'2 5.0
2018-Feb-12 10:30N 59°02' E 005°36'4 7.6
2018-Feb-12 10:00N 58°60' E 005°42'1 2.8
2018-Feb-12 09:30N 58°59' E 005°43'0 0.0
2018-Feb-12 09:00N 58°59' E 005°43'0 0.0
2018-Feb-12 08:30N 58°59' E 005°43'0 0.0
2018-Feb-12 08:00N 58°59' E 005°43'0 0.0
2018-Feb-12 07:30N 58°59' E 005°43'0 0.0
2018-Feb-12 07:00N 58°59' E 005°43'0 0.0
2018-Feb-12 06:30N 58°59' E 005°43'0 0.0
2018-Feb-12 06:00N 58°59' E 005°43'0 0.0
2018-Feb-12 05:30N 58°59' E 005°43'0 0.0
2018-Feb-12 05:00N 58°59' E 005°43'0 0.0
2018-Feb-12 04:30N 58°59' E 005°43'0 0.0
2018-Feb-12 04:00N 58°59' E 005°43'0 0.0
2018-Feb-12 03:30N 58°59' E 005°43'0 0.0
2018-Feb-12 03:00N 58°59' E 005°43'0 0.0
2018-Feb-12 02:30N 58°59' E 005°43'0 0.0
2018-Feb-12 02:00N 58°59' E 005°43'0 0.0
2018-Feb-12 01:27N 58°59' E 005°43'0 0.0
2018-Feb-12 01:00N 58°59' E 005°43'0 0.0
2018-Feb-12 00:30N 58°59' E 005°43'0 0.0
2018-Feb-12 00:00N 58°59' E 005°43'0 0.0
2018-Feb-11 23:30N 58°59' E 005°43'0 0.0
2018-Feb-11 23:00N 58°59' E 005°43'  

Dump ship's entire track history